METAR AND TAF INFORMATION
METAR FOR YBRM
ADDS - METARS form results

(0626 UTC 20 April 2018)
Data provider http://aviationweather.gov/adds/metars/
 
METAR text: YBRM 200600Z 27007KT 9999 FEW025 34/24 Q1009
Conditions at: YBRM (BROOME AIRPORT , AU) observed 0600 UTC 20 April 2018
Temperature: 34.0°C (93°F)
Dewpoint: 24.0°C (75°F) [RH = 56%]
Pressure (altimeter): 29.79 inches Hg (1009.0 mb)
Winds: from the W (270 degrees) at 8 MPH (7 knots; 3.6 m/s)
Visibility: 6 or more miles (10+ km)
Ceiling: at least 12,000 feet AGL
Clouds: few clouds at 2500 feet AGL
Weather: no significant weather observed at this time

METAR text: YBRM 200530Z 29009KT 9999 FEW020 SCT120 33/25 Q1009 RF00.0/000.0
Conditions at: YBRM (BROOME AIRPORT , AU) observed 0530 UTC 20 April 2018
Temperature: 33.0°C (91°F)
Dewpoint: 25.0°C (77°F) [RH = 63%]
Pressure (altimeter): 29.79 inches Hg (1009.0 mb)
Winds: from the WNW (290 degrees) at 10 MPH (9 knots; 4.7 m/s)
Visibility: 6 or more miles (10+ km)
Ceiling: at least 12,000 feet AGL
Clouds: few clouds at 2000 feet AGL
scattered clouds at 12000 feet AGL
Weather: no significant weather observed at this time

Forecast for: YBRM (BROOME AIRPORT , AU)
Text: TAF YBRM 200517Z 2006/2106 27010KT CAVOK
Forecast period: 0600 to 1300 UTC 20 April 2018
Forecast type: FROM: standard forecast or significant change
Winds: from the W (270 degrees) at 12 MPH (10 knots; 5.2 m/s)
Visibility: 6 or more miles (10+ km)
Clouds: not forecast
Weather: NSW  (no significant weather)
Forecast for: YBRM (BROOME AIRPORT , AU)
Text: TAF YBRM 200517Z 2006/2106 27010KT CAVOK
Forecast period: 0600 to 1300 UTC 20 April 2018
Forecast type: FROM: standard forecast or significant change
Winds: from the W (270 degrees) at 12 MPH (10 knots; 5.2 m/s)
Visibility: 6 or more miles (10+ km)
Clouds: not forecast
Weather: NSW  (no significant weather)
Forecast for: YBRM (BROOME AIRPORT , AU)
Text: TAF YBRM 200517Z 2006/2106 27010KT CAVOK
Forecast period: 1300 UTC 20 April 2018 to 0500 UTC 21 April 2018
Forecast type: FROM: standard forecast or significant change
Winds: variable direction winds at 3 MPH (3 knots; 1.6 m/s)
Visibility: 6 or more miles (10+ km)
Clouds: not forecast
Weather: NSW  (no significant weather)
Forecast for: YBRM (BROOME AIRPORT , AU)
Text: TAF YBRM 200517Z 2006/2106 27010KT CAVOK
Forecast period: 1300 UTC 20 April 2018 to 0500 UTC 21 April 2018
Forecast type: FROM: standard forecast or significant change
Winds: variable direction winds at 3 MPH (3 knots; 1.6 m/s)
Visibility: 6 or more miles (10+ km)
Clouds: not forecast
Weather: NSW  (no significant weather)
Forecast for: YBRM (BROOME AIRPORT , AU)
Text: TAF YBRM 200517Z 2006/2106 27010KT CAVOK
Forecast period: 0500 to 0600 UTC 21 April 2018
Forecast type: FROM: standard forecast or significant change
Winds: from the NNW (330 degrees) at 8 MPH (7 knots; 3.6 m/s)
Visibility: 6 or more miles (10+ km)
Clouds: not forecast
Weather: NSW  (no significant weather)
Forecast for: YBRM (BROOME AIRPORT , AU)
Text: TAF YBRM 200517Z 2006/2106 27010KT CAVOK
Forecast period: 0500 to 0600 UTC 21 April 2018
Forecast type: FROM: standard forecast or significant change
Winds: from the NNW (330 degrees) at 8 MPH (7 knots; 3.6 m/s)
Visibility: 6 or more miles (10+ km)
Clouds: not forecast
Weather: NSW  (no significant weather)

 AIRPORT MAP

 RUNWAY INFORMATION
Runway 10 Runway length 8064 ft Runway width 148 ft
Runway elevation 56 ft Runway displaced threshold 295 ft Runway heading 105
Runway 28 Runway length 8064 ft Runway width 148 ft
Runway elevation 22 ft Runway displaced threshold 689 ft Runway heading 285

 AIRPORT FREQUENCIES
Type ATIS Name ATIS Frequency 126.55 MHZ
Type CTAF Name CTAF Frequency 126 MHZ
Type FSS Name BRISBANE C Frequency 123.9 MHZ

 AIRPORT NEAR NAVIGATION AIDS
Type NDB-DME Name Broome Frequency 320 KHZ